createdAt,value
2022-10-05T00:01:32.018Z,11.40
2022-10-05T00:04:11.251Z,14.57
2022-10-05T00:06:40.808Z,14.25
2022-10-05T00:09:14.172Z,16.33
2022-10-05T00:11:42.568Z,13.55
2022-10-05T00:14:19.232Z,19.05
2022-10-05T00:16:49.300Z,14.98
2022-10-05T00:19:21.757Z,14.95
2022-10-05T00:21:53.969Z,16.13
2022-10-05T00:24:26.640Z,14.50
2022-10-05T00:26:57.997Z,13.50
2022-10-05T00:29:27.777Z,13.15
2022-10-05T00:31:56.392Z,15.70
2022-10-05T00:34:27.152Z,14.98
2022-10-05T00:36:56.033Z,12.52
2022-10-05T00:39:25.352Z,14.25
2022-10-05T00:41:57.130Z,13.43
2022-10-05T00:44:31.719Z,21.05
2022-10-05T00:47:26.201Z,18.45
2022-10-05T00:52:28.280Z,15.02
2022-10-05T00:54:56.159Z,17.02
2022-10-05T00:57:50.812Z,13.77
2022-10-05T01:00:20.900Z,16.10
2022-10-05T01:03:07.716Z,14.88
2022-10-05T01:05:53.877Z,18.90
2022-10-05T01:08:40.895Z,19.58
2022-10-05T01:11:20.185Z,13.43
2022-10-05T01:14:06.585Z,16.80
2022-10-05T01:16:39.113Z,15.73
2022-10-05T01:19:07.175Z,15.88
2022-10-05T01:21:43.942Z,17.27
2022-10-05T01:24:12.113Z,16.38
2022-10-05T01:27:07.948Z,17.98
2022-10-05T01:29:48.603Z,20.55
2022-10-05T01:32:21.221Z,18.20
2022-10-05T01:35:07.049Z,23.58
2022-10-05T01:37:48.307Z,16.05
2022-10-05T01:40:19.180Z,16.20
2022-10-05T01:43:04.510Z,18.80
2022-10-05T01:45:51.127Z,17.15
2022-10-05T01:48:28.588Z,18.73
2022-10-05T01:51:04.910Z,16.55
2022-10-05T01:53:35.855Z,18.08
2022-10-05T01:56:12.688Z,16.38
2022-10-05T01:59:00.449Z,17.52
2022-10-05T02:01:28.461Z,13.80
2022-10-05T02:04:00.352Z,16.02
2022-10-05T02:06:31.041Z,14.98
2022-10-05T02:09:04.130Z,18.92
2022-10-05T02:11:33.717Z,16.67
2022-10-05T02:14:12.897Z,16.90
2022-10-05T02:16:54.145Z,18.52
2022-10-05T02:19:24.583Z,18.77
2022-10-05T02:21:56.755Z,16.42
2022-10-05T02:24:36.778Z,16.80
2022-10-05T02:27:06.438Z,12.52
2022-10-05T02:29:36.994Z,14.43
2022-10-05T02:32:07.907Z,15.77
2022-10-05T02:34:42.584Z,16.62
2022-10-05T02:37:33.215Z,15.07
2022-10-05T02:40:12.797Z,16.00
2022-10-05T02:42:59.988Z,14.77
2022-10-05T02:45:48.480Z,16.52
2022-10-05T02:48:20.787Z,17.75
2022-10-05T02:50:49.133Z,32.75
2022-10-05T02:53:18.594Z,17.15
2022-10-05T02:55:56.122Z,13.93
2022-10-05T02:58:25.969Z,16.65
2022-10-05T03:01:01.222Z,15.40
2022-10-05T03:03:57.313Z,16.77
2022-10-05T03:06:32.397Z,14.70
2022-10-05T03:09:04.994Z,14.98
2022-10-05T03:11:44.404Z,16.00
2022-10-05T03:14:28.063Z,14.57
2022-10-05T03:17:15.583Z,13.82
2022-10-05T03:20:08.659Z,20.58
2022-10-05T03:22:40.429Z,14.63
2022-10-05T03:25:27.121Z,15.23
2022-10-05T03:28:05.653Z,19.70
2022-10-05T03:30:46.348Z,20.80
2022-10-05T03:33:14.656Z,18.65
2022-10-05T03:36:15.849Z,16.98
2022-10-05T03:38:53.552Z,23.10
2022-10-05T03:41:40.494Z,25.05
2022-10-05T03:44:28.709Z,15.27
2022-10-05T03:47:04.592Z,19.33
2022-10-05T03:49:43.780Z,20.75
2022-10-05T03:52:31.810Z,22.25
2022-10-05T03:55:06.632Z,26.83
2022-10-05T03:57:37.331Z,20.33
2022-10-05T04:00:10.242Z,14.80
2022-10-05T04:03:15.949Z,16.03
2022-10-05T04:06:00.591Z,16.27
2022-10-05T04:08:36.206Z,22.05
2022-10-05T04:11:07.059Z,15.82
2022-10-05T04:13:42.346Z,17.60
2022-10-05T04:16:18.348Z,16.92
2022-10-05T04:19:00.360Z,16.35
2022-10-05T04:21:32.382Z,19.77
2022-10-05T04:24:06.046Z,14.20
2022-10-05T04:26:39.520Z,16.52
2022-10-05T04:29:14.830Z,16.30
2022-10-05T04:31:55.522Z,14.07
2022-10-05T04:34:53.313Z,15.82
2022-10-05T04:37:27.344Z,18.98
2022-10-05T04:40:05.162Z,17.95
2022-10-05T04:42:37.360Z,19.50
2022-10-05T04:45:09.501Z,17.52
2022-10-05T04:50:07.580Z,16.90
2022-10-05T04:52:42.544Z,19.65
2022-10-05T04:55:22.499Z,23.02
2022-10-05T04:58:03.361Z,19.42
2022-10-05T05:00:44.589Z,19.25
2022-10-05T05:03:19.079Z,17.27
2022-10-05T05:06:15.857Z,21.00
2022-10-05T05:08:50.952Z,20.55
2022-10-05T05:11:29.277Z,18.65
2022-10-05T05:14:15.741Z,23.35
2022-10-05T05:16:45.116Z,15.32
2022-10-05T05:19:17.496Z,18.13
2022-10-05T05:22:00.993Z,17.58
2022-10-05T05:24:50.548Z,17.08
2022-10-05T05:27:18.507Z,15.45
2022-10-05T05:30:05.750Z,20.15
2022-10-05T05:32:57.973Z,17.48
2022-10-05T05:35:38.838Z,19.67
2022-10-05T05:38:26.409Z,15.32
2022-10-05T05:41:17.536Z,19.00
2022-10-05T05:43:46.928Z,13.85
2022-10-05T05:46:17.014Z,17.92
2022-10-05T05:48:46.737Z,15.73
2022-10-05T05:51:38.776Z,15.88
2022-10-05T05:54:21.662Z,15.25
2022-10-05T05:56:56.262Z,24.25
2022-10-05T05:59:44.293Z,18.58
2022-10-05T06:02:17.303Z,19.63
2022-10-05T06:04:50.533Z,15.43
2022-10-05T06:07:30.187Z,16.38
2022-10-05T06:10:05.804Z,14.93
2022-10-05T06:12:48.595Z,17.42
2022-10-05T06:15:33.740Z,16.00
2022-10-05T06:18:03.952Z,16.35
2022-10-05T06:20:51.410Z,16.55
2022-10-05T06:23:22.833Z,17.35
2022-10-05T06:25:55.845Z,16.90
2022-10-05T06:28:27.017Z,16.23
2022-10-05T06:31:10.265Z,21.60
2022-10-05T06:36:23.810Z,15.65
2022-10-05T06:38:52.188Z,20.60
2022-10-05T06:41:24.850Z,19.75
2022-10-05T06:43:58.132Z,20.77
2022-10-05T06:47:09.561Z,18.42
2022-10-05T06:50:13.020Z,14.07
2022-10-05T06:53:26.826Z,21.45
2022-10-05T06:56:09.662Z,16.25
2022-10-05T06:59:04.452Z,12.65
2022-10-05T07:01:51.845Z,14.85
2022-10-05T07:04:36.621Z,19.85
2022-10-05T07:07:24.624Z,16.98
2022-10-05T07:10:02.661Z,14.52
2022-10-05T07:12:42.425Z,14.57
2022-10-05T07:15:26.449Z,36.15
2022-10-05T07:18:14.407Z,21.48
2022-10-05T07:21:02.696Z,10.90
2022-10-05T07:23:41.817Z,15.32
2022-10-05T07:26:24.065Z,12.45
2022-10-05T07:29:11.372Z,14.10
2022-10-05T07:31:41.743Z,12.95
2022-10-05T07:34:20.239Z,14.82
2022-10-05T07:37:18.653Z,15.80
2022-10-05T07:40:05.062Z,16.00
2022-10-05T07:42:48.794Z,12.38
2022-10-05T07:45:27.740Z,11.75
2022-10-05T07:47:58.196Z,12.38
2022-10-05T07:50:28.687Z,13.57
2022-10-05T07:52:58.642Z,14.60
2022-10-05T07:55:30.543Z,15.63
2022-10-05T07:58:20.271Z,13.95
2022-10-05T08:01:13.002Z,14.90
2022-10-05T08:04:02.506Z,8.95
2022-10-05T08:06:32.952Z,17.02
2022-10-05T08:09:21.034Z,10.40
2022-10-05T08:12:08.455Z,17.85
2022-10-05T08:14:38.393Z,12.77
2022-10-05T08:17:26.361Z,13.07
2022-10-05T08:19:59.760Z,11.98
2022-10-05T08:22:32.774Z,8.20
2022-10-05T08:25:15.392Z,11.65
2022-10-05T08:27:50.935Z,9.98
2022-10-05T08:30:19.210Z,9.30
2022-10-05T08:33:02.296Z,11.38
2022-10-05T08:35:40.433Z,11.82
2022-10-05T08:38:17.613Z,9.45
2022-10-05T08:40:46.214Z,12.80
2022-10-05T08:43:26.192Z,16.98
2022-10-05T08:46:12.819Z,17.15
2022-10-05T08:48:52.223Z,8.90
2022-10-05T08:51:48.147Z,7.43
2022-10-05T08:54:25.327Z,9.20
2022-10-05T08:57:02.277Z,8.88
2022-10-05T08:59:39.673Z,7.57
2022-10-05T09:02:26.101Z,12.30
2022-10-05T09:05:08.514Z,7.68
2022-10-05T09:07:40.027Z,6.85
2022-10-05T09:10:20.382Z,5.47
2022-10-05T09:12:59.282Z,8.65
2022-10-05T09:15:45.372Z,11.00
2022-10-05T09:18:28.541Z,7.82
2022-10-05T09:20:59.893Z,8.23
2022-10-05T09:23:42.856Z,7.68
2022-10-05T09:26:13.554Z,7.57
2022-10-05T09:29:04.622Z,14.27
2022-10-05T09:31:52.127Z,12.63
2022-10-05T09:34:38.964Z,5.13
2022-10-05T09:37:15.007Z,11.63
2022-10-05T09:40:01.838Z,8.63
2022-10-05T09:42:54.972Z,4.60
2022-10-05T09:45:55.351Z,8.85
2022-10-05T09:48:41.949Z,8.50
2022-10-05T09:51:19.653Z,9.27
2022-10-05T09:54:17.173Z,6.55
2022-10-05T09:56:45.413Z,6.57
2022-10-05T09:59:16.485Z,7.45
2022-10-05T10:01:51.832Z,6.30
2022-10-05T10:04:29.725Z,3.85
2022-10-05T10:07:15.698Z,8.85
2022-10-05T10:09:43.534Z,6.13
2022-10-05T10:12:29.855Z,6.25
2022-10-05T10:15:02.530Z,8.55
2022-10-05T10:17:50.010Z,7.93
2022-10-05T10:20:40.547Z,6.32
2022-10-05T10:23:08.545Z,9.65
2022-10-05T10:26:08.760Z,19.92
2022-10-05T10:28:53.156Z,8.43
2022-10-05T10:34:07.752Z,16.83
2022-10-05T10:36:41.607Z,5.35
2022-10-05T10:39:15.315Z,8.10
2022-10-05T10:41:52.223Z,7.68
2022-10-05T10:44:32.167Z,5.63
2022-10-05T10:47:06.312Z,3.90
2022-10-05T10:49:55.229Z,4.60
2022-10-05T10:52:29.277Z,3.33
2022-10-05T10:55:00.465Z,6.53
2022-10-05T10:57:28.592Z,6.03
2022-10-05T11:00:17.048Z,7.40
2022-10-05T11:02:56.936Z,6.88
2022-10-05T11:05:38.383Z,8.02
2022-10-05T11:08:16.336Z,4.28
2022-10-05T11:11:02.730Z,8.43
2022-10-05T11:13:48.626Z,7.20
2022-10-05T11:16:23.850Z,5.18
2022-10-05T11:19:06.875Z,4.53
2022-10-05T11:21:53.931Z,3.25
2022-10-05T11:24:41.017Z,6.03
2022-10-05T11:27:27.345Z,7.30
2022-10-05T11:30:14.364Z,3.22
2022-10-05T11:33:01.416Z,6.53
2022-10-05T11:35:48.400Z,4.20
2022-10-05T11:38:19.015Z,3.70
2022-10-05T11:40:47.624Z,4.03
2022-10-05T11:43:21.261Z,4.28
2022-10-05T11:46:09.443Z,3.25
2022-10-05T11:48:46.574Z,6.20
2022-10-05T11:51:28.488Z,3.40
2022-10-05T11:54:02.568Z,11.20
2022-10-05T11:56:37.071Z,6.13
2022-10-05T11:59:20.869Z,4.57
2022-10-05T12:04:32.509Z,5.55
2022-10-05T12:07:13.192Z,7.32
2022-10-05T12:10:12.196Z,6.43
2022-10-05T12:12:45.268Z,5.07
2022-10-05T12:15:18.903Z,5.95
2022-10-05T12:18:08.237Z,6.03
2022-10-05T12:20:53.307Z,7.00
2022-10-05T12:23:35.325Z,5.05
2022-10-05T12:26:06.297Z,4.82
2022-10-05T12:28:58.179Z,3.40
2022-10-05T12:31:32.374Z,4.13
2022-10-05T12:34:11.994Z,3.00
2022-10-05T12:37:03.087Z,4.65
2022-10-05T12:39:42.388Z,5.68
2022-10-05T12:42:10.664Z,10.50
2022-10-05T12:45:03.757Z,4.35
2022-10-05T12:47:33.148Z,4.63
2022-10-05T12:50:24.235Z,3.60
2022-10-05T12:53:08.999Z,4.00
2022-10-05T12:55:40.084Z,2.72
2022-10-05T12:58:19.325Z,2.67
2022-10-05T13:01:13.768Z,4.15
2022-10-05T13:03:47.048Z,2.70
2022-10-05T13:08:52.457Z,3.35
2022-10-05T13:11:23.407Z,10.43
2022-10-05T13:13:58.437Z,1.50
2022-10-05T13:16:37.501Z,1.40
2022-10-05T13:19:14.367Z,4.38
2022-10-05T13:22:01.086Z,4.15
2022-10-05T13:24:38.080Z,5.72
2022-10-05T13:27:08.437Z,6.25
2022-10-05T13:29:40.262Z,4.78
2022-10-05T13:32:34.722Z,2.40
2022-10-05T13:35:22.754Z,1.38
2022-10-05T13:38:10.443Z,2.10
2022-10-05T13:40:47.844Z,2.17
2022-10-05T13:43:34.528Z,3.00
2022-10-05T13:46:07.958Z,5.85
2022-10-05T13:48:59.571Z,6.18
2022-10-05T13:51:46.888Z,1.50
2022-10-05T13:54:22.293Z,3.17
2022-10-05T13:56:53.742Z,1.70
2022-10-05T13:59:38.108Z,2.25
2022-10-05T14:02:10.484Z,5.43
2022-10-05T14:04:49.020Z,1.63
2022-10-05T14:07:36.241Z,1.40
2022-10-05T14:10:12.797Z,2.92
2022-10-05T14:12:54.825Z,1.30
2022-10-05T14:15:38.472Z,1.67
2022-10-05T14:18:25.454Z,1.20
2022-10-05T14:21:08.882Z,2.55
2022-10-05T14:23:38.355Z,3.60
2022-10-05T14:26:18.991Z,1.50
2022-10-05T14:29:24.601Z,1.17
2022-10-05T14:32:02.168Z,2.70
2022-10-05T14:34:36.093Z,2.40
2022-10-05T14:37:26.214Z,6.30
2022-10-05T14:39:58.581Z,5.65
2022-10-05T14:42:29.340Z,2.35
2022-10-05T14:45:01.419Z,1.58
2022-10-05T14:47:34.209Z,2.20
2022-10-05T14:50:17.705Z,1.77
2022-10-05T14:53:25.564Z,2.28
2022-10-05T14:56:12.588Z,1.10
2022-10-05T14:58:56.411Z,1.35
2022-10-05T15:01:31.490Z,1.77
2022-10-05T15:04:05.657Z,1.70
2022-10-05T15:06:37.584Z,2.83
2022-10-05T15:09:17.597Z,1.88
2022-10-05T15:11:54.477Z,1.75
2022-10-05T15:14:28.325Z,3.53
2022-10-05T15:17:01.732Z,6.78
2022-10-05T15:19:46.321Z,4.07
2022-10-05T15:22:31.686Z,1.65
2022-10-05T15:25:12.555Z,1.38
2022-10-05T15:27:59.672Z,3.17
2022-10-05T15:30:28.242Z,3.33
2022-10-05T15:32:56.393Z,4.25
2022-10-05T15:35:35.998Z,5.97
2022-10-05T15:38:21.167Z,2.78
2022-10-05T15:40:58.722Z,1.63
2022-10-05T15:43:31.147Z,2.80
2022-10-05T15:46:14.859Z,6.00
2022-10-05T15:48:50.356Z,1.30
2022-10-05T15:51:37.172Z,1.48
2022-10-05T15:54:27.689Z,1.58
2022-10-05T15:56:56.503Z,5.95
2022-10-05T15:59:30.095Z,6.90
2022-10-05T16:02:01.531Z,10.75
2022-10-05T16:04:33.966Z,3.80
2022-10-05T16:07:32.037Z,1.80
2022-10-05T16:10:12.851Z,7.55
2022-10-05T16:12:56.010Z,1.50
2022-10-05T16:15:50.305Z,4.88
2022-10-05T16:18:38.804Z,2.47
2022-10-05T16:21:14.677Z,2.85
2022-10-05T16:23:48.337Z,1.27
2022-10-05T16:26:16.225Z,3.10
2022-10-05T16:28:57.981Z,4.93
2022-10-05T16:31:47.119Z,10.20
2022-10-05T16:34:17.274Z,2.95
2022-10-05T16:37:18.394Z,1.88
2022-10-05T16:39:52.821Z,5.78
2022-10-05T16:42:27.230Z,2.08
2022-10-05T16:44:55.421Z,3.47
2022-10-05T16:47:32.652Z,2.75
2022-10-05T16:50:16.355Z,1.70
2022-10-05T16:52:45.972Z,2.55
2022-10-05T16:55:19.940Z,2.65
2022-10-05T16:57:52.406Z,8.82
2022-10-05T17:00:21.000Z,3.22
2022-10-05T17:03:13.516Z,3.35
2022-10-05T17:05:41.892Z,8.65
2022-10-05T17:08:13.259Z,4.53
2022-10-05T17:10:59.953Z,7.22
2022-10-05T17:13:36.741Z,2.40
2022-10-05T17:16:19.640Z,4.63
2022-10-05T17:19:02.586Z,11.93
2022-10-05T17:21:53.881Z,3.80
2022-10-05T17:24:37.891Z,4.25
2022-10-05T17:27:20.919Z,4.82
2022-10-05T17:29:53.581Z,3.63
2022-10-05T17:32:34.491Z,2.00
2022-10-05T17:35:02.364Z,2.88
2022-10-05T17:37:43.569Z,2.40
2022-10-05T17:40:29.860Z,5.97
2022-10-05T17:43:01.223Z,5.13
2022-10-05T17:45:35.375Z,2.47
2022-10-05T17:48:07.117Z,4.32
2022-10-05T17:51:15.030Z,5.03
2022-10-05T17:54:03.895Z,6.75
2022-10-05T17:56:33.715Z,3.15
2022-10-05T17:59:03.384Z,6.57
2022-10-05T18:01:33.909Z,3.83
2022-10-05T18:04:16.106Z,7.03
2022-10-05T18:06:52.678Z,2.22
2022-10-05T18:09:24.862Z,3.25
2022-10-05T18:12:11.419Z,5.95
2022-10-05T18:14:51.640Z,2.33
2022-10-05T18:17:38.094Z,2.00
2022-10-05T18:20:15.148Z,3.20
2022-10-05T18:22:46.353Z,4.32
2022-10-05T18:25:29.387Z,3.20
2022-10-05T18:28:08.553Z,2.88
2022-10-05T18:31:05.826Z,8.27
2022-10-05T18:33:36.813Z,6.03
2022-10-05T18:36:08.132Z,2.28
2022-10-05T18:38:55.167Z,1.88
2022-10-05T18:41:35.327Z,8.50
2022-10-05T18:44:12.984Z,4.30
2022-10-05T18:46:44.342Z,5.97
2022-10-05T18:49:12.280Z,2.25
2022-10-05T18:52:00.310Z,1.60
2022-10-05T18:54:32.041Z,3.78
2022-10-05T18:57:01.074Z,23.38
2022-10-05T18:59:36.171Z,3.15
2022-10-05T19:02:11.442Z,3.47
2022-10-05T19:04:54.391Z,7.25
2022-10-05T19:07:22.921Z,4.40
2022-10-05T19:09:50.935Z,3.28
2022-10-05T19:12:27.041Z,2.40
2022-10-05T19:15:15.946Z,2.25
2022-10-05T19:17:44.524Z,4.15
2022-10-05T19:20:21.716Z,4.25
2022-10-05T19:22:49.701Z,2.20
2022-10-05T19:25:32.250Z,2.78
2022-10-05T19:28:19.369Z,1.95
2022-10-05T19:30:54.870Z,2.92
2022-10-05T19:33:35.894Z,5.68
2022-10-05T19:36:10.214Z,2.97
2022-10-05T19:38:41.622Z,2.83
2022-10-05T19:41:22.480Z,2.33
2022-10-05T19:44:08.888Z,2.80
2022-10-05T19:46:36.942Z,3.88
2022-10-05T19:49:06.234Z,7.50
2022-10-05T19:51:37.058Z,4.78
2022-10-05T19:54:14.175Z,4.78
2022-10-05T19:56:50.669Z,2.30
2022-10-05T19:59:27.805Z,7.45
2022-10-05T20:01:57.443Z,5.38
2022-10-05T20:04:40.766Z,7.22
2022-10-05T20:07:15.206Z,1.77
2022-10-05T20:09:57.986Z,3.95
2022-10-05T20:12:46.571Z,10.75
2022-10-05T20:15:36.676Z,1.95
2022-10-05T20:18:41.273Z,4.55
2022-10-05T20:21:29.510Z,3.88
2022-10-05T20:24:14.010Z,7.88
2022-10-05T20:27:04.286Z,2.92
2022-10-05T20:29:35.395Z,2.70
2022-10-05T20:32:08.022Z,6.72
2022-10-05T20:34:40.813Z,2.75
2022-10-05T20:37:11.426Z,5.43
2022-10-05T20:39:40.780Z,2.30
2022-10-05T20:42:09.480Z,10.65
2022-10-05T20:44:38.647Z,4.45
2022-10-05T20:47:09.446Z,5.88
2022-10-05T20:49:41.997Z,3.33
2022-10-05T20:52:15.162Z,3.92
2022-10-05T20:54:43.438Z,2.22
2022-10-05T20:57:13.909Z,8.27
2022-10-05T20:59:42.229Z,3.65
2022-10-05T21:02:10.567Z,2.80
2022-10-05T21:04:46.593Z,4.35
2022-10-05T21:07:17.078Z,3.75
2022-10-05T21:09:46.621Z,3.65
2022-10-05T21:12:16.315Z,3.60
2022-10-05T21:14:45.362Z,3.10
2022-10-05T21:17:15.143Z,8.77
2022-10-05T21:19:43.785Z,5.25
2022-10-05T21:22:12.830Z,7.10
2022-10-05T21:24:43.057Z,2.95
2022-10-05T21:27:14.115Z,2.83
2022-10-05T21:29:45.386Z,6.35
2022-10-05T21:32:14.055Z,3.95
2022-10-05T21:34:45.531Z,3.25
2022-10-05T21:37:15.465Z,4.70
2022-10-05T21:39:43.954Z,7.53
2022-10-05T21:42:12.758Z,2.70
2022-10-05T21:44:42.186Z,3.60
2022-10-05T21:47:11.604Z,4.72
2022-10-05T21:49:41.901Z,7.18
2022-10-05T21:52:10.040Z,7.90
2022-10-05T21:54:41.097Z,3.28
2022-10-05T21:57:12.393Z,3.75
2022-10-05T21:59:41.538Z,4.13
2022-10-05T22:02:10.124Z,2.03
2022-10-05T22:04:40.634Z,3.72
2022-10-05T22:07:20.259Z,5.85
2022-10-05T22:09:49.568Z,2.63
2022-10-05T22:12:19.702Z,6.18
2022-10-05T22:14:48.654Z,6.22
2022-10-05T22:17:24.334Z,5.47
2022-10-05T22:19:52.772Z,5.38
2022-10-05T22:22:22.101Z,5.65
2022-10-05T22:24:52.108Z,4.97
2022-10-05T22:27:21.251Z,5.60
2022-10-05T22:29:51.839Z,4.20
2022-10-05T22:32:21.886Z,5.55
2022-10-05T22:34:50.368Z,2.63
2022-10-05T22:37:19.881Z,3.72
2022-10-05T22:39:50.824Z,2.88
2022-10-05T22:42:19.006Z,3.58
2022-10-05T22:44:48.175Z,2.38
2022-10-05T22:47:17.105Z,5.97
2022-10-05T22:49:46.472Z,2.97
2022-10-05T22:52:16.105Z,1.92
2022-10-05T22:54:44.503Z,7.10
2022-10-05T22:57:15.567Z,6.20
2022-10-05T22:59:46.556Z,3.20
2022-10-05T23:02:17.927Z,19.13
2022-10-05T23:04:47.241Z,4.82
2022-10-05T23:07:21.033Z,3.03
2022-10-05T23:09:52.052Z,2.92
2022-10-05T23:12:21.167Z,3.90
2022-10-05T23:14:51.697Z,4.43
2022-10-05T23:17:21.786Z,3.50
2022-10-05T23:19:51.688Z,11.15
2022-10-05T23:22:20.749Z,6.07
2022-10-05T23:24:49.826Z,9.45
2022-10-05T23:27:18.597Z,6.20
2022-10-05T23:29:48.866Z,4.38
2022-10-05T23:32:17.163Z,4.53
2022-10-05T23:34:45.325Z,1.73
2022-10-05T23:37:13.698Z,2.97
2022-10-05T23:39:42.931Z,1.10
2022-10-05T23:42:14.284Z,2.22
2022-10-05T23:44:44.288Z,4.05
2022-10-05T23:47:12.705Z,3.60
2022-10-05T23:49:42.232Z,0.70
2022-10-05T23:52:11.049Z,3.25
2022-10-05T23:54:40.743Z,1.65
2022-10-05T23:57:08.990Z,6.80
2022-10-05T23:59:39.864Z,1.58
